Hampton, VA

04:14 EST le 21 décembre 2014 (GMT -0500)
Langley Air Force Base | Change Station
CLOSE
Current Station
Aéroport
Location: Langley AFB,
Altitude: 10 ft
Stations météo à proximité

Alt. 10 ft 37.08 °N, 76.36 °W | Updated 16 minutes ago

Ciel dégagé
Ciel dégagé
28 ° F
Paraît 23 ° F
N
5
Vent Variable Vent de NO

Aujourd'hui
Haut(e) -- | Bas -- ° F
--% Risque de précip.
Hier
Haut(e) -- | Bas -- ° F
Precip. -- pouce
7:15 AM 4:52 PM
Lune descendante, 1% visible
Pression 30.33 pouce
Visibilité 10.0 Miles terrestres
Nuages Nuageux 7000 ft
Refroidissement éolien 23 ° F
Point de rosée 26 ° F
Humidité 91%
Précipitations 0.00 pouce
Profondeur de la couche neigeuse Non disponible.
UV 0 sur 12
Pollen .10 sur 12
Qualité de l'air Non disponible.
Flu Activity Non disponible.
METAR KLFI 210858Z AUTO 31004KT 10SM BKN070 M02/M03 A3031 RMK AO2 SLP271 T10221035 51003 $

More Conditions Fewer Conditions

Pression 30.33 pouce
Visibilité 10.0 Miles terrestres
Nuages Nuageux 7000 ft
Refroidissement éolien 23 ° F
Point de rosée 26 ° F
Humidité 91%
Précipitations 0.00 pouce
Profondeur de la couche neigeuse Non disponible.
UV 0 sur 12
Pollen .10 sur 12
Qualité de l'air Non disponible.
Flu Activity Non disponible.
METAR KLFI 210858Z AUTO 31004KT 10SM BKN070 M02/M03 A3031 RMK AO2 SLP271 T10221035 51003 $

More Conditions Fewer Conditions

10-Day Weather Forecast

Almanac

Astronomie

Dec. 21, 2014 Lever Coucher
Temps réel
Crépuscule civil
Crépuscule nautique
Crépuscule astronomique
Lune
Durée de lumière visible
Longueur du jour
Tomorrow will be .
, % of the Moon is Illuminated

Extrêmes aujourd'hui

State Highs State Lows

Community

WunderPhotos

Upload Photos

1,779,364 Photos téléchargées !

WunderBlogs® & News

Nearby

Qualité de l'air

  Qualité de l'air Indice de la qualité de l'air Polluant
Not available.

Épaisseur de neige

Station Depth Altitude

Activité sismique

Ville Distance Mag. Time & Date
Minimum magnitude displayed is 2.5.

Températures des eaux côtières

Lieu Température

Stations météo à proximité